Kota Kinabalu, Malaysia

3:27 PM +08 on March 24, 2017 (GMT +0800)
Kota Kinabalu | | Change Station

Elev 10 ft 5.93 °N, 116.05 °E | Updated 27 minutes ago

Light Thunderstorms and Rain
Light Thunderstorm Rain
81 °F
Feels Like 86 °F
N
8
Wind Variable Wind from ESE

Today
High -- | Low -- °F
--% Chance of Precip.
Yesterday
High -- | Low -- °F
Precip. -- in
Pressure 29.77 in
Visibility 6.2 miles
Clouds Few 1300 ft
Few 1600 ft
Scattered Clouds 3500 ft
Overcast 26000 ft
Heat Index 86 °F
Dew Point 75 °F
Humidity 84%
Rainfall 0.00 in
Snow Depth Not available.
6:18 AM 6:26 PM
Waning Crescent, 17% visible
METAR WBKK 240700Z 11007KT 9999 -TSRA FEW013 FEW016CB SCT035 OVC260 27/24 Q1008 NOSIG
Pressure 29.77 in
Visibility 6.2 miles
Clouds Few 1300 ft
Few 1600 ft
Scattered Clouds 3500 ft
Overcast 26000 ft
Heat Index 86 °F
Dew Point 75 °F
Humidity 84%
Rainfall 0.00 in
Snow Depth Not available.
6:18 AM 6:26 PM
Waning Crescent, 17% visible
METAR WBKK 240700Z 11007KT 9999 -TSRA FEW013 FEW016CB SCT035 OVC260 27/24 Q1008 NOSIG

Get Severe Weather Alerts

Thanks for signing up!

Be on the lookout for a verification email in your inbox.

You'll start receiving the daily forecast at 8 AM.

×

10-Day Weather Forecast

No radar image for this location.
×

Almanac

Astronomy

Mar. 24, 2017 Rise Set
Actual Time
Civil Twilight
Nautical Twilight
Astronomical Twilight
Moon
Length of Visible Light
Length of Day
Tomorrow will be .
, % of the Moon is Illuminated

Today's Extremes

Country Highs Country Lows

Community

WunderPhotos

Upload Photos

1,962,540 photos uploaded!

WunderBlog® & News

Nearby

Air Quality

  Air Quality AQ Index Pollutant
Not available.

Snow Depth

Station Depth Elevation

Earthquake Activity

City Distance Mag. Time & Date
Minimum magnitude displayed is 2.5.

Earthquake Activity

City Distance Mag. Time & Date
Minimum magnitude displayed is 2.5.

Coastal Water Temperatures

Place Temperature

Stations

Nearby Weather Stations

Station Location Temp. Windchill Dew Point Humidity Wind Precip. Elev Updated Type